This is the latest recevied weather packets stored in our database for station/object IW2LAO-13. If no packets are shown the sender has not sent any weather packets the latest 10 day(s).
| Time | Temp. | Humidity | Pressure | Rain* | Wind** | Luminosity | Snow |
|---|---|---|---|---|---|---|---|
| 1777586131 | 13.89° C | 83% | 1023.8 hPa | 0 mm | - | 0 W/m² | - |
| 1777584928 | 13.89° C | 83% | 1023.5 hPa | 0 mm | - | 0 W/m² | - |
| 1777578325 | 15° C | 77% | 1023.1 hPa | 0 mm | - | 0 W/m² | - |
| 1777577729 | 14.44° C | 78% | 1022.9 hPa | 0 mm | - | 0 W/m² | - |
| 1777575324 | 15° C | 77% | 1022.4 hPa | 0 mm | - | 0 W/m² | - |
| 1777571119 | 16.11° C | 71% | 1021.3 hPa | 0 mm | - | 37 W/m² | - |
| 1777567522 | 16.67° C | 61% | 1021.3 hPa | 0 mm | - | 86 W/m² | - |
| 1777566327 | 17.22° C | 60% | 1021.3 hPa | 0 mm | - | 95 W/m² | - |
| 1777565719 | 17.22° C | 61% | 1021.3 hPa | 0 mm | - | 121 W/m² | - |
| 1777565123 | 17.22° C | 60% | 1021.3 hPa | 0 mm | - | 153 W/m² | - |
| 1777560318 | 18.33° C | 60% | 1021.5 hPa | 0 mm | - | 346 W/m² | - |
| 1777558518 | 18.33° C | 57% | 1021.6 hPa | 0 mm | - | 821 W/m² | - |
| 1777557915 | 18.33° C | 58% | 1021.7 hPa | 0 mm | - | 867 W/m² | - |
| 1777554919 | 16.67° C | 62% | 1022.1 hPa | 0 mm | - | 304 W/m² | - |
| 1777553116 | 16.11° C | 63% | 1022.7 hPa | 0 mm | - | 387 W/m² | - |
| 1777550116 | 15.56° C | 66% | 1023.1 hPa | 0 mm | - | 392 W/m² | - |
| 1777548912 | 14.44° C | 67% | 1023.1 hPa | 0 mm | - | 274 W/m² | - |
| 1777547117 | 13.89° C | 70% | 1023 hPa | 0 mm | - | 149 W/m² | - |
| 1777546517 | 13.89° C | 69% | 1023 hPa | 0 mm | - | 137 W/m² | - |
| 1777544717 | 13.89° C | 69% | 1022.9 hPa | 0 mm | - | 171 W/m² | - |
| 1777543515 | 14.44° C | 69% | 1022.7 hPa | 0 mm | - | 290 W/m² | - |
| 1777542316 | 15.56° C | 68% | 1022.6 hPa | 0 mm | - | 580 W/m² | - |
| 1777532711 | 13.33° C | 92% | 1021.5 hPa | 0 mm | - | 93 W/m² | - |
| 1777531512 | 13.33° C | 94% | 1021.3 hPa | 0 mm | - | 183 W/m² | - |
| 1777530304 | 13.33° C | 93% | 1021.3 hPa | 0.25 mm | - | 153 W/m² | - |
* Rain latest hour (hover to see other rain measurements)
** Current wind speed in m/s (hover to see current wind gust speed)